createdAt,value
2022-08-14T00:01:16.361Z,65.92059809315779
2022-08-14T00:04:34.436Z,66.20930000700311
2022-08-14T00:07:16.929Z,65.6959192565809
2022-08-14T00:11:15.921Z,65.29889292386167
2022-08-14T00:14:17.235Z,65.8584065709843
2022-08-14T00:17:16.340Z,65.80307364007977
2022-08-14T00:21:16.800Z,65.04662448520332
2022-08-14T00:24:22.932Z,64.01188177601021
2022-08-14T00:27:16.440Z,64.94822394616912
2022-08-14T00:31:44.412Z,65.17430226846676
2022-08-14T00:41:30.724Z,66.88069153763236
2022-08-14T00:44:31.816Z,67.09226542714154
2022-08-14T00:47:26.957Z,65.77321111872965
2022-08-14T00:51:16.385Z,66.00310051384383
2022-08-14T00:54:21.734Z,65.48700062359103
2022-08-14T00:57:18.505Z,65.90991757258726
2022-08-14T01:01:18.658Z,65.56585498266968
2022-08-14T01:04:51.737Z,65.6858017705272
2022-08-14T01:07:21.893Z,65.58643847596285
2022-08-14T01:11:18.975Z,65.87502382086652
2022-08-14T01:14:25.421Z,65.6731104035531
2022-08-14T01:17:16.734Z,65.70916011651289
2022-08-14T01:21:21.690Z,65.14436285750729
2022-08-14T01:24:28.995Z,65.87230170646838
2022-08-14T01:27:19.310Z,65.65109703234336
2022-08-14T01:31:18.628Z,65.95044239162368
2022-08-14T01:35:17.701Z,66.25552931539596
2022-08-14T01:37:16.584Z,66.47428976410495
2022-08-14T01:41:18.833Z,66.186959108738
2022-08-14T01:44:32.854Z,65.91868974712183
2022-08-14T01:47:21.765Z,66.01274180994876
2022-08-14T01:51:19.159Z,66.1862064578894
2022-08-14T01:54:17.861Z,65.9470291746427
2022-08-14T01:57:15.974Z,65.92954482070473
2022-08-14T02:01:16.911Z,65.94549144718404
2022-08-14T02:04:40.939Z,65.97470275148726
2022-08-14T02:07:17.355Z,66.21316037837194
2022-08-14T02:11:17.043Z,66.54901869895916
2022-08-14T02:14:31.374Z,65.86035784720418
2022-08-14T02:17:16.452Z,66.45569150042958
2022-08-14T02:21:19.285Z,65.84733712683594
2022-08-14T02:24:40.261Z,65.39734014929917
2022-08-14T02:28:25.514Z,65.33835233935258
2022-08-14T02:31:15.901Z,64.97816457083424
2022-08-14T02:34:26.135Z,64.9340168584341
2022-08-14T02:37:16.198Z,64.04282091566282
2022-08-14T02:41:17.693Z,63.57487041474986
2022-08-14T02:44:18.961Z,63.36048779129759
2022-08-14T02:47:20.468Z,63.03486964486301
2022-08-14T02:51:16.322Z,61.663453080812275
2022-08-14T02:54:19.703Z,61.60277768517293
2022-08-14T02:57:39.958Z,61.31669046312844
2022-08-14T03:01:17.792Z,61.212847691581395
2022-08-14T03:04:17.716Z,61.26536801859435
2022-08-14T03:07:17.173Z,60.969081597890245
2022-08-14T03:11:16.316Z,59.46035544976082
2022-08-14T03:14:17.981Z,59.57867446308339
2022-08-14T03:17:16.437Z,60.177956574538236
2022-08-14T03:21:18.159Z,61.58949472396389
2022-08-14T03:24:23.330Z,61.46614067112045
2022-08-14T03:27:16.423Z,61.38191652916145
2022-08-14T03:31:18.216Z,60.519950545674924
2022-08-14T03:34:24.985Z,60.04255316663665
2022-08-14T03:37:38.705Z,60.001902435712054
2022-08-14T03:41:18.975Z,59.55662484124587
2022-08-14T03:45:25.186Z,59.763224291716945
2022-08-14T03:47:16.566Z,60.018499454104585
2022-08-14T03:51:16.757Z,59.429175105891815
2022-08-14T03:54:20.528Z,59.55858522954902
2022-08-14T03:57:16.704Z,60.60064908446125
2022-08-14T04:01:17.559Z,60.21850651343525
2022-08-14T04:04:15.918Z,59.976722798692336
2022-08-14T04:07:16.173Z,59.59542390707377
2022-08-14T04:11:17.151Z,59.30447019778831
2022-08-14T04:14:16.649Z,59.71009924962572
2022-08-14T04:17:15.969Z,59.62543862230714
2022-08-14T04:21:17.163Z,60.24725602137244
2022-08-14T04:24:17.780Z,59.95019819851402
2022-08-14T04:27:16.779Z,59.11818743751332
2022-08-14T04:31:17.498Z,58.590772213323106
2022-08-14T04:34:17.130Z,60.25698612019987
2022-08-14T04:51:18.039Z,62.089088865875446
2022-08-14T04:54:17.306Z,62.22329837719487
2022-08-14T04:57:16.953Z,62.271109494911144
2022-08-14T05:01:19.513Z,61.596608335163076
2022-08-14T05:04:20.808Z,61.52484920565453
2022-08-14T05:07:16.910Z,61.89301393918038
2022-08-14T05:11:16.135Z,62.51986032862707
2022-08-14T05:14:45.744Z,62.536429800885344
2022-08-14T05:17:16.039Z,63.153834525761056
2022-08-14T05:21:56.833Z,63.75662505538224
2022-08-14T05:24:17.449Z,63.36080651720929
2022-08-14T05:27:22.604Z,64.232050138486
2022-08-14T05:31:20.807Z,64.79339267853051
2022-08-14T05:34:22.092Z,64.947366846189
2022-08-14T05:41:52.475Z,63.81808216047024
2022-08-14T05:51:15.706Z,65.45665513103836
2022-08-14T05:54:26.604Z,65.81567050862859
2022-08-14T06:01:35.859Z,64.66245983630655
2022-08-14T06:04:36.017Z,64.73220025259901
2022-08-14T06:07:36.861Z,65.34256930704431
2022-08-14T06:11:23.742Z,64.60346887491154
2022-08-14T06:14:21.459Z,64.5604520922151
2022-08-14T06:17:25.818Z,65.91349423567523
2022-08-14T06:21:17.489Z,65.48747736244664
2022-08-14T06:24:18.647Z,65.75786848390125
2022-08-14T06:27:16.594Z,65.96554632527535
2022-08-14T06:31:16.103Z,63.762450092347954
2022-08-14T06:35:03.241Z,64.34707689459923
2022-08-14T06:37:18.841Z,64.68093565988576
2022-08-14T06:41:15.747Z,65.48190434347555
2022-08-14T06:44:16.201Z,65.81768628254423
2022-08-14T06:47:16.280Z,65.39509533712643
2022-08-14T06:51:15.814Z,65.71168966117199
2022-08-14T06:54:16.113Z,65.86623121778716
2022-08-14T06:57:16.225Z,66.04818135536132
2022-08-14T07:11:15.776Z,61.479333883861045
2022-08-14T07:14:15.959Z,61.98197909653575
2022-08-14T07:17:16.005Z,62.22679045991429
2022-08-14T07:21:16.277Z,61.4259826613578
2022-08-14T07:24:21.984Z,61.072932370386994
2022-08-14T07:27:16.649Z,60.347549800653354
2022-08-14T07:31:16.574Z,58.63188646725776
2022-08-14T07:34:36.495Z,58.169506939457214
2022-08-14T07:37:16.826Z,56.59455061118021
2022-08-14T07:41:16.488Z,55.588577271670246
2022-08-14T07:44:32.496Z,56.075379071004164
2022-08-14T07:47:16.823Z,55.80306743865344
2022-08-14T07:51:17.996Z,55.49806761935432
2022-08-14T07:54:16.695Z,54.510419579637905
2022-08-14T07:57:24.923Z,54.73843155711401
2022-08-14T08:01:17.900Z,54.7591923250202
2022-08-14T08:04:24.077Z,54.756463458624445
2022-08-14T08:07:16.933Z,54.507374557845054
2022-08-14T08:11:16.286Z,54.760078346208076
2022-08-14T08:14:18.160Z,53.90991505806359
2022-08-14T08:17:17.182Z,52.83289817254425
2022-08-14T08:21:15.830Z,51.982256327598414
2022-08-14T08:24:20.121Z,50.547203302076795
2022-08-14T08:27:17.647Z,50.081525933100416
2022-08-14T08:31:16.365Z,48.72104132116306
2022-08-14T08:34:18.124Z,49.376329949860875
2022-08-14T08:37:16.672Z,48.476493832487016
2022-08-14T08:41:16.364Z,49.50319872033822
2022-08-14T08:44:17.368Z,50.911359735825876
2022-08-14T08:47:17.057Z,50.2086161720071
2022-08-14T08:51:22.031Z,48.9783313597953
2022-08-14T08:54:18.371Z,49.745031697442705
2022-08-14T08:57:16.437Z,48.66398618199687
2022-08-14T09:01:27.599Z,47.304562553986116
2022-08-14T09:04:17.901Z,46.96997339060772
2022-08-14T09:07:16.603Z,46.885205842910516
2022-08-14T09:11:19.443Z,46.748164051987146
2022-08-14T09:14:16.238Z,47.214654347200096
2022-08-14T09:17:16.221Z,47.53618045564521
2022-08-14T09:21:16.182Z,46.84228821569865
2022-08-14T09:24:29.289Z,46.670389438079106
2022-08-14T09:27:22.498Z,46.21250808630167
2022-08-14T09:31:18.316Z,45.8073578466221
2022-08-14T09:34:29.156Z,45.76262675053532
2022-08-14T09:37:30.337Z,45.770315877877515
2022-08-14T09:42:19.993Z,45.85386807456247
2022-08-14T09:44:38.593Z,45.2030742758968
2022-08-14T09:47:17.338Z,43.90401337699909
2022-08-14T09:51:21.951Z,43.998903268902275
2022-08-14T09:54:22.751Z,44.28028262043574
2022-08-14T09:57:27.704Z,43.563070669125224
2022-08-14T10:01:17.520Z,43.47076150836827
2022-08-14T10:11:23.843Z,43.01141247525842
2022-08-14T10:14:29.358Z,43.30488904100471
2022-08-14T10:17:21.904Z,42.87211213986874
2022-08-14T10:21:18.412Z,41.86996511923333
2022-08-14T10:24:24.403Z,42.08714526367399
2022-08-14T10:27:19.042Z,42.22826432881394
2022-08-14T10:31:19.709Z,41.19466868287949
2022-08-14T10:34:19.507Z,41.30611547616111
2022-08-14T10:37:19.011Z,40.84718305148496
2022-08-14T10:41:16.967Z,40.18159934584135
2022-08-14T10:44:21.913Z,38.638069557225805
2022-08-14T10:47:41.686Z,40.31577807478148
2022-08-14T10:51:24.475Z,37.01957519982153
2022-08-14T10:54:35.975Z,37.37170382709086
2022-08-14T10:57:19.028Z,39.942308208391715
2022-08-14T11:01:16.196Z,38.95509998796712
2022-08-14T11:04:25.918Z,38.69416921600083
2022-08-14T11:07:21.230Z,36.4830546534771
2022-08-14T11:11:15.950Z,34.61129837817505
2022-08-14T11:14:19.550Z,36.206996278835646
2022-08-14T11:17:21.589Z,36.37079668027787
2022-08-14T11:21:18.235Z,32.99879128368697
2022-08-14T11:24:54.679Z,31.91717482336965
2022-08-14T11:27:19.198Z,34.59275343477996
2022-08-14T11:31:18.620Z,33.829157154357695
2022-08-14T11:34:32.444Z,33.084076448895736
2022-08-14T11:37:23.705Z,31.213855429304527
2022-08-14T11:41:17.198Z,31.45646616966443
2022-08-14T11:44:17.735Z,31.127379973991278
2022-08-14T11:47:19.607Z,33.258054519805476
2022-08-14T11:51:24.416Z,29.331689835189863
2022-08-14T11:54:19.446Z,33.075216681524864
2022-08-14T11:57:18.651Z,32.34654989023483
2022-08-14T12:01:16.025Z,31.058882259099143
2022-08-14T12:04:32.247Z,33.69855484419681
2022-08-14T12:07:17.147Z,31.500923267646744
2022-08-14T12:11:16.958Z,33.20607343283364
2022-08-14T12:14:30.118Z,34.136665906802854
2022-08-14T12:17:16.232Z,32.491165867399786
2022-08-14T12:21:19.445Z,33.2040875098345
2022-08-14T12:24:36.768Z,32.90390548448733
2022-08-14T12:27:16.933Z,30.60810766937268
2022-08-14T12:31:20.747Z,29.778344334651756
2022-08-14T12:41:21.158Z,31.100052908686695
2022-08-14T12:44:16.736Z,30.935103978782802
2022-08-14T12:47:17.717Z,29.876146841207106
2022-08-14T12:51:19.817Z,27.726144979269915
2022-08-14T13:01:20.520Z,27.831414697651383
2022-08-14T13:11:19.017Z,26.404533428434686
2022-08-14T13:21:18.106Z,27.41362092354225
2022-08-14T13:31:23.978Z,28.495599845303303
2022-08-14T13:41:16.325Z,26.556745622864813
2022-08-14T13:51:17.320Z,25.029627194494374
2022-08-14T14:01:16.889Z,28.58795772667964
2022-08-14T14:11:17.561Z,28.088440923504223
2022-08-14T14:21:17.736Z,28.49477287881919
2022-08-14T14:31:19.344Z,27.020664098411757
2022-08-14T14:41:19.915Z,25.382361451079653
2022-08-14T14:51:18.577Z,25.17034642684288
2022-08-14T15:01:23.426Z,24.807077780424727
2022-08-14T15:11:16.207Z,26.95578886814756
2022-08-14T15:21:16.032Z,25.27214469918472
2022-08-14T15:31:16.906Z,24.318898859467186
2022-08-14T15:41:16.928Z,25.539212007664105
2022-08-14T16:01:53.001Z,23.971385598410606
2022-08-14T16:41:39.268Z,27.52118464022332
2022-08-14T16:51:18.479Z,27.95792831717631
2022-08-14T16:54:34.311Z,28.144580696764738
2022-08-14T16:57:20.932Z,28.662560302456875
2022-08-14T17:11:15.626Z,29.18375933673166
2022-08-14T17:14:17.327Z,28.99039851349325
2022-08-14T17:17:17.614Z,29.200804675298887
2022-08-14T17:21:21.642Z,29.61045426331404
2022-08-14T17:24:56.934Z,29.94418421741773
2022-08-14T17:27:20.792Z,30.127448220410976
2022-08-14T17:41:23.956Z,31.590582832016484
2022-08-14T17:44:21.832Z,31.885795834996113
2022-08-14T17:47:18.001Z,32.17316903771699
2022-08-14T18:21:42.799Z,35.463112593004396
2022-08-14T18:24:20.050Z,36.08096181642975
2022-08-14T18:27:22.805Z,36.105239801054076
2022-08-14T18:31:43.788Z,36.216357022302496
2022-08-14T18:34:31.587Z,36.31218619065524
2022-08-14T18:37:19.326Z,36.919242796338864
2022-08-14T18:41:37.551Z,36.83682004415955
2022-08-14T18:45:16.046Z,38.026804948418715
2022-08-14T19:01:23.670Z,37.800834225462744
2022-08-14T19:04:35.378Z,38.7020824537509
2022-08-14T19:11:50.343Z,39.253628532267456
2022-08-14T19:14:43.944Z,38.983721019120736
2022-08-14T19:18:10.893Z,39.24838809326084
2022-08-14T19:21:24.297Z,39.69439622517493
2022-08-14T19:24:27.797Z,39.899957786512175
2022-08-14T20:21:16.324Z,46.05282744516839
2022-08-14T20:24:31.009Z,45.714021692811215
2022-08-14T20:27:23.412Z,45.75445606286293
2022-08-14T20:31:18.228Z,46.59172756943863
2022-08-14T20:34:24.320Z,47.06891070734417
2022-08-14T20:37:22.355Z,47.934328797436116
2022-08-14T20:41:19.311Z,47.99582994988391
2022-08-14T20:45:24.102Z,48.00161168513895
2022-08-14T20:47:16.309Z,48.50570565149961
2022-08-14T20:51:20.175Z,48.540516584206614
2022-08-14T20:54:21.501Z,50.01269525966922
2022-08-14T20:57:17.976Z,49.12872247743223
2022-08-14T21:01:33.564Z,49.3859805648348
2022-08-14T21:04:26.763Z,49.339607546990656
2022-08-14T21:07:24.966Z,50.062473822589716
2022-08-14T21:11:19.101Z,50.23166189347433
2022-08-14T21:14:20.408Z,50.9537172260532
2022-08-14T21:17:16.613Z,51.25454928409452
2022-08-14T21:21:21.198Z,51.59360546797035
2022-08-14T21:24:39.646Z,51.75911714432731
2022-08-14T21:27:20.232Z,51.7405223238475
2022-08-14T21:31:23.900Z,51.6991769653229
2022-08-14T21:34:27.263Z,51.651450318261425
2022-08-14T21:37:16.624Z,51.76218128970113
2022-08-14T21:41:41.539Z,52.36652430984844
2022-08-14T21:44:18.372Z,52.185660691047026
2022-08-14T21:47:17.758Z,52.25936360975212
2022-08-14T21:51:54.899Z,52.23887737237192
2022-08-14T21:54:32.346Z,52.392607863444276
2022-08-14T21:57:17.719Z,52.36905013598107
2022-08-14T22:01:18.311Z,53.029438715229304
2022-08-14T22:04:32.728Z,53.398683770132465
2022-08-14T22:07:18.111Z,53.619876154871434
2022-08-14T22:11:16.394Z,53.378580211006195
2022-08-14T22:14:26.221Z,53.42173293959349
2022-08-14T22:17:17.245Z,53.60383958290068
2022-08-14T22:21:17.122Z,54.13555131637778
2022-08-14T22:24:38.215Z,54.5774984533093
2022-08-14T22:27:16.928Z,54.72709443074377
2022-08-14T22:31:23.127Z,54.499382860267154
2022-08-14T22:34:16.826Z,54.23953259296794
2022-08-14T22:37:16.822Z,54.50332689205792
2022-08-14T22:41:29.317Z,54.53631640903172
2022-08-14T22:44:18.630Z,55.06457033400473
2022-08-14T22:47:15.830Z,55.67762665609127
2022-08-14T22:51:19.297Z,54.821351655208666
2022-08-14T22:54:52.041Z,55.23276078265692
2022-08-14T22:57:16.835Z,55.542738893902666
2022-08-14T23:01:22.859Z,55.862175300262855
2022-08-14T23:04:34.096Z,55.77025761977154
2022-08-14T23:07:22.262Z,55.4991206700807
2022-08-14T23:11:16.203Z,55.82630353029277
2022-08-14T23:14:23.896Z,56.28524967856383
2022-08-14T23:17:17.619Z,56.62403920672909
2022-08-14T23:21:16.928Z,56.64438805945414
2022-08-14T23:24:18.196Z,56.89311444280829
2022-08-14T23:27:20.850Z,57.04736873159134
2022-08-14T23:31:34.446Z,56.75428225929247
2022-08-14T23:34:20.693Z,56.730995772373944
2022-08-14T23:37:17.181Z,56.91346964835905
2022-08-14T23:41:17.293Z,56.867345247041
2022-08-14T23:44:16.382Z,57.351948865491316
2022-08-14T23:47:26.607Z,56.99685182682993
2022-08-14T23:51:17.636Z,57.581800065606785
2022-08-14T23:54:48.408Z,57.81077778151323
2022-08-14T23:57:19.469Z,58.53635186876674
